Time;durP1;ratioP1;P1;durP2;ratioP2;P2;SDS_P1;SDS_P2;PMS_P1;PMS_P2;Temp;Humidity;BMP_temperature;BMP_pressure;BME280_temperature;BME280_humidity;BME280_pressure;Samples;Min_cycle;Max_cycle;Signal;HPM_P1;HPM_P2
2022/12/21 00:00:48;;;;;;;;;;;2.60;90.10;;;;;;5036325;28;19925;-76
2022/12/21 00:03:13;;;;;;;;;;;2.60;90.10;;;;;;5035547;28;20504;-77
2022/12/21 00:05:39;;;;;;;;;;;2.60;90.10;;;;;;5039363;28;19956;-78
2022/12/21 00:08:04;;;;;;;;;;;2.70;90.20;;;;;;5037561;28;19929;-78
2022/12/21 00:10:29;;;;;;;;;;;2.70;90.10;;;;;;5019245;28;19929;-77
2022/12/21 00:12:55;;;;;;;;;;;2.70;90.10;;;;;;5035864;28;19928;-78
2022/12/21 00:15:21;;;;;;;;;;;2.60;90.10;;;;;;5034916;28;19925;-77
2022/12/21 00:17:46;;;;;;;;;;;2.70;90.20;;;;;;5020290;28;20794;-77
2022/12/21 00:20:12;;;;;;;;;;;2.70;90.10;;;;;;5032047;28;20630;-77
2022/12/21 00:22:37;;;;;;;;;;;2.70;90.10;;;;;;5019930;28;19921;-77
2022/12/21 00:25:03;;;;;;;;;;;2.70;90.10;;;;;;5021059;28;20493;-78
2022/12/21 00:27:29;;;;;;;;;;;2.70;90.10;;;;;;5018218;28;19928;-77
2022/12/21 00:29:55;;;;;;;;;;;2.70;90.10;;;;;;5017653;28;19967;-76
2022/12/21 00:32:20;;;;;;;;;;;2.70;90.10;;;;;;5037280;28;19959;-76
2022/12/21 00:34:46;;;;;;;;;;;2.70;90.10;;;;;;5033599;28;19925;-78
2022/12/21 00:37:11;;;;;;;;;;;2.70;90.20;;;;;;5038225;28;20378;-76
2022/12/21 00:39:37;;;;;;;;;;;2.70;90.20;;;;;;5037980;28;19921;-77
2022/12/21 00:42:03;;;;;;;;;;;2.70;90.20;;;;;;5030850;28;19986;-77
2022/12/21 00:44:28;;;;;;;;;;;2.70;90.10;;;;;;5037552;28;20408;-76
2022/12/21 00:46:53;;;;;;;;;;;2.70;90.20;;;;;;5032834;28;20016;-76
2022/12/21 00:49:19;;;;;;;;;;;2.70;90.10;;;;;;5039266;28;19986;-77
2022/12/21 00:51:44;;;;;;;;;;;2.70;90.20;;;;;;5034880;28;20373;-78
2022/12/21 00:54:10;;;;;;;;;;;2.70;90.10;;;;;;5019844;28;19917;-78
2022/12/21 00:56:35;;;;;;;;;;;2.70;90.20;;;;;;5036033;28;19921;-75
2022/12/21 00:59:01;;;;;;;;;;;2.70;90.10;;;;;;5037491;28;20386;-75
2022/12/21 01:01:27;;;;;;;;;;;2.70;90.10;;;;;;5048741;28;19929;-75
2022/12/21 01:03:53;;;;;;;;;;;2.70;90.20;;;;;;5034845;28;19928;-75
2022/12/21 01:06:19;;;;;;;;;;;2.80;90.20;;;;;;5036644;28;19924;-74
2022/12/21 01:08:45;;;;;;;;;;;2.70;90.50;;;;;;5018291;28;19929;-75
2022/12/21 01:11:11;;;;;;;;;;;2.80;90.10;;;;;;5032388;28;19929;-74
2022/12/21 01:13:36;;;;;;;;;;;2.80;90.10;;;;;;5017791;28;19928;-75
2022/12/21 01:16:02;;;;;;;;;;;2.80;90.10;;;;;;5035636;28;19921;-75
2022/12/21 01:18:27;;;;;;;;;;;2.70;90.10;;;;;;5033561;28;20470;-74
2022/12/21 01:20:54;;;;;;;;;;;2.80;90.10;;;;;;5034769;28;19964;-75
2022/12/21 01:23:19;;;;;;;;;;;2.70;90.50;;;;;;5052860;28;19924;-75
2022/12/21 01:25:47;;;;;;;;;;;2.80;90.20;;;;;;5017961;28;19932;-75
2022/12/21 01:28:13;;;;;;;;;;;2.80;90.20;;;;;;5034262;28;20013;-75
2022/12/21 01:30:39;;;;;;;;;;;2.80;90.20;;;;;;5034398;28;19921;-75
2022/12/21 01:33:04;;;;;;;;;;;2.80;90.20;;;;;;5035474;28;19917;-75
2022/12/21 01:35:30;;;;;;;;;;;2.80;90.20;;;;;;5034024;28;19921;-76
2022/12/21 01:37:55;;;;;;;;;;;2.80;90.20;;;;;;5019460;28;19983;-75
2022/12/21 01:40:21;;;;;;;;;;;2.80;90.20;;;;;;5034217;28;19927;-75
2022/12/21 01:42:46;;;;;;;;;;;2.80;90.20;;;;;;5033083;28;19921;-73
2022/12/21 01:45:28;;;;;;;;;;;2.80;90.20;;;;;;5036653;28;19924;-75
2022/12/21 01:47:57;;;;;;;;;;;2.80;90.20;;;;;;5035534;28;20020;-77
2022/12/21 01:50:31;;;;;;;;;;;2.80;90.20;;;;;;5018388;28;19972;-77
2022/12/21 01:53:02;;;;;;;;;;;2.80;90.20;;;;;;5024203;28;20065;-78
2022/12/21 01:55:27;;;;;;;;;;;2.80;90.20;;;;;;5034374;28;19917;-77
2022/12/21 01:57:53;;;;;;;;;;;2.80;90.20;;;;;;5037584;28;20383;-77
2022/12/21 02:00:18;;;;;;;;;;;2.80;90.20;;;;;;5035578;28;20450;-76
2022/12/21 02:02:54;;;;;;;;;;;2.80;90.20;;;;;;5020761;28;20015;-77
2022/12/21 02:05:27;;;;;;;;;;;2.80;90.20;;;;;;5035557;28;20007;-77
2022/12/21 02:07:53;;;;;;;;;;;2.80;90.20;;;;;;5036060;28;19961;-77
2022/12/21 02:10:18;;;;;;;;;;;2.80;90.20;;;;;;5018655;28;19933;-76
2022/12/21 02:12:44;;;;;;;;;;;2.80;90.20;;;;;;5019215;28;19921;-76
2022/12/21 02:15:09;;;;;;;;;;;2.80;90.20;;;;;;5033645;28;19956;-76
2022/12/21 02:17:53;;;;;;;;;;;2.90;90.20;;;;;;5017521;28;19935;-76
2022/12/21 02:20:22;;;;;;;;;;;2.80;90.20;;;;;;5049992;28;19925;-77
2022/12/21 02:22:47;;;;;;;;;;;2.90;90.20;;;;;;5015043;28;19932;-76
2022/12/21 02:25:13;;;;;;;;;;;2.90;90.20;;;;;;5048471;28;19925;-77
2022/12/21 02:27:44;;;;;;;;;;;2.90;90.20;;;;;;5033477;28;19947;-76
2022/12/21 02:30:19;;;;;;;;;;;2.80;90.20;;;;;;5032370;28;19933;-77
2022/12/21 02:33:03;;;;;;;;;;;2.80;90.20;;;;;;5036393;28;20015;-77
2022/12/21 02:35:36;;;;;;;;;;;2.90;90.20;;;;;;5033315;28;19948;-76
2022/12/21 02:38:02;;;;;;;;;;;2.90;90.20;;;;;;5047085;28;21608;-78
2022/12/21 02:40:30;;;;;;;;;;;2.90;90.20;;;;;;5032419;28;20334;-75
2022/12/21 02:45:53;;;;;;;;;;;2.90;90.20;;;;;;4985210;28;19924;-75
2022/12/21 02:48:21;;;;;;;;;;;2.90;90.20;;;;;;5032933;28;19925;-75
2022/12/21 02:50:52;;;;;;;;;;;2.90;90.20;;;;;;5035202;28;19921;-75
2022/12/21 02:53:19;;;;;;;;;;;2.90;90.20;;;;;;5018578;28;20466;-75
2022/12/21 02:55:45;;;;;;;;;;;2.90;90.20;;;;;;5033673;28;20000;-75
2022/12/21 02:58:12;;;;;;;;;;;2.90;90.20;;;;;;5032352;28;20047;-75
2022/12/21 03:00:38;;;;;;;;;;;2.90;90.20;;;;;;5027656;28;20386;-74
2022/12/21 03:06:03;;;;;;;;;;;2.90;90.20;;;;;;5034617;28;19928;-75
2022/12/21 03:08:44;;;;;;;;;;;2.90;90.20;;;;;;5023284;28;19959;-75
2022/12/21 03:11:10;;;;;;;;;;;2.90;90.20;;;;;;5045639;28;20349;-75
2022/12/21 03:13:41;;;;;;;;;;;2.90;90.20;;;;;;5035402;28;19975;-76
2022/12/21 03:16:21;;;;;;;;;;;2.90;90.20;;;;;;5032096;28;20559;-75
2022/12/21 03:19:04;;;;;;;;;;;2.90;90.20;;;;;;5035569;28;19948;-76
2022/12/21 03:21:30;;;;;;;;;;;2.90;90.20;;;;;;5027525;28;19921;-76
2022/12/21 03:23:57;;;;;;;;;;;2.90;90.20;;;;;;5033295;28;19917;-75
2022/12/21 03:26:22;;;;;;;;;;;2.90;90.20;;;;;;5029714;28;19956;-74
2022/12/21 03:28:48;;;;;;;;;;;2.90;90.20;;;;;;5029611;28;19925;-73
2022/12/21 03:31:15;;;;;;;;;;;2.90;90.20;;;;;;5034358;28;19925;-75
2022/12/21 03:33:41;;;;;;;;;;;2.90;90.20;;;;;;5014139;28;20431;-76
2022/12/21 03:36:11;;;;;;;;;;;2.90;90.20;;;;;;5050862;28;19921;-75
2022/12/21 03:38:40;;;;;;;;;;;2.90;90.20;;;;;;5036433;28;19920;-75
2022/12/21 03:41:06;;;;;;;;;;;2.90;90.20;;;;;;5050430;28;19968;-75
2022/12/21 03:43:34;;;;;;;;;;;3.00;90.20;;;;;;5051240;28;20019;-74
2022/12/21 03:46:07;;;;;;;;;;;2.90;90.20;;;;;;5038163;28;19959;-76
2022/12/21 03:48:51;;;;;;;;;;;2.90;90.20;;;;;;5035836;28;20554;-75
2022/12/21 03:51:20;;;;;;;;;;;2.90;90.20;;;;;;5035542;28;19925;-75
2022/12/21 03:53:49;;;;;;;;;;;2.90;90.20;;;;;;5035599;28;19974;-75
2022/12/21 03:56:26;;;;;;;;;;;2.90;90.20;;;;;;5036414;28;19987;-75
2022/12/21 03:58:52;;;;;;;;;;;2.90;90.20;;;;;;5019917;28;20583;-75
2022/12/21 04:01:36;;;;;;;;;;;2.90;90.20;;;;;;5048589;28;19928;-75
2022/12/21 04:04:03;;;;;;;;;;;2.90;90.20;;;;;;5037648;28;20678;-75
2022/12/21 04:06:29;;;;;;;;;;;2.90;90.20;;;;;;5034954;28;19920;-76
2022/12/21 04:08:54;;;;;;;;;;;2.90;90.20;;;;;;5036898;28;19925;-75
2022/12/21 04:14:04;;;;;;;;;;;2.90;90.20;;;;;;5037672;28;19923;-76
2022/12/21 04:16:29;;;;;;;;;;;2.90;90.20;;;;;;5037304;28;19917;-75
2022/12/21 04:21:39;;;;;;;;;;;2.90;90.20;;;;;;5036663;28;19924;-75
2022/12/21 04:29:32;;;;;;;;;;;2.90;90.20;;;;;;5033830;28;19990;-75
2022/12/21 04:31:58;;;;;;;;;;;2.90;90.20;;;;;;5039093;28;21336;-75
2022/12/21 04:34:24;;;;;;;;;;;2.90;90.20;;;;;;5023128;28;19951;-76
2022/12/21 04:39:33;;;;;;;;;;;2.90;90.20;;;;;;5036523;28;19974;-76
2022/12/21 04:41:58;;;;;;;;;;;2.90;90.20;;;;;;5021748;28;19928;-76
2022/12/21 04:44:24;;;;;;;;;;;2.90;90.20;;;;;;5034182;28;19924;-76
2022/12/21 04:46:49;;;;;;;;;;;2.90;90.20;;;;;;5035590;28;20500;-74
2022/12/21 04:49:15;;;;;;;;;;;2.90;90.20;;;;;;5035976;28;19925;-76
2022/12/21 04:51:40;;;;;;;;;;;2.90;90.20;;;;;;5020572;28;20012;-75
2022/12/21 04:54:06;;;;;;;;;;;2.90;90.20;;;;;;5036710;28;19917;-76
2022/12/21 04:56:31;;;;;;;;;;;2.90;90.20;;;;;;5034242;28;19944;-75
2022/12/21 04:58:57;;;;;;;;;;;2.90;90.50;;;;;;5035856;28;19968;-75
2022/12/21 05:01:22;;;;;;;;;;;2.90;90.20;;;;;;5051348;28;19929;-73
2022/12/21 05:03:48;;;;;;;;;;;2.90;90.20;;;;;;5036200;28;19924;-75
2022/12/21 05:06:13;;;;;;;;;;;2.90;90.20;;;;;;5051943;28;19925;-75
2022/12/21 05:08:39;;;;;;;;;;;2.90;90.20;;;;;;5031975;28;19925;-74
2022/12/21 05:11:07;;;;;;;;;;;3.00;90.20;;;;;;5051098;28;19952;-76
2022/12/21 05:13:33;;;;;;;;;;;3.00;90.30;;;;;;5035152;28;19921;-74
2022/12/21 05:16:02;;;;;;;;;;;3.00;90.20;;;;;;5038672;28;19971;-75
2022/12/21 05:18:28;;;;;;;;;;;3.00;90.20;;;;;;5024908;28;20016;-76
2022/12/21 05:20:53;;;;;;;;;;;3.00;90.20;;;;;;5048419;28;19916;-75
2022/12/21 05:23:19;;;;;;;;;;;3.00;90.20;;;;;;5037220;28;19956;-75
2022/12/21 05:25:44;;;;;;;;;;;3.00;90.20;;;;;;5032087;28;19928;-75
2022/12/21 05:28:10;;;;;;;;;;;3.00;90.20;;;;;;5039234;28;19920;-74
2022/12/21 05:30:35;;;;;;;;;;;3.00;90.30;;;;;;5032346;28;20381;-75
2022/12/21 05:33:00;;;;;;;;;;;3.00;90.20;;;;;;5037876;28;19924;-76
2022/12/21 05:35:26;;;;;;;;;;;3.00;90.20;;;;;;5032788;28;19920;-74
2022/12/21 05:37:51;;;;;;;;;;;3.00;90.20;;;;;;5032121;28;19921;-75
2022/12/21 05:40:17;;;;;;;;;;;3.00;90.20;;;;;;5029308;28;19916;-74
2022/12/21 05:42:42;;;;;;;;;;;3.00;90.20;;;;;;5035858;28;20054;-75
2022/12/21 05:45:08;;;;;;;;;;;3.00;90.20;;;;;;5019867;28;19925;-76
2022/12/21 05:47:33;;;;;;;;;;;3.00;90.20;;;;;;5034203;28;19982;-76
2022/12/21 05:49:59;;;;;;;;;;;3.00;90.20;;;;;;5036129;28;20011;-76
2022/12/21 05:52:24;;;;;;;;;;;3.10;90.20;;;;;;5048613;28;20323;-76
2022/12/21 05:54:50;;;;;;;;;;;3.00;90.20;;;;;;5053867;28;20002;-77
2022/12/21 05:57:15;;;;;;;;;;;3.00;90.20;;;;;;5037059;28;19927;-76
2022/12/21 05:59:41;;;;;;;;;;;3.00;90.20;;;;;;5017198;28;19949;-76
2022/12/21 06:02:06;;;;;;;;;;;3.10;90.20;;;;;;5013081;28;19991;-76
2022/12/21 06:04:31;;;;;;;;;;;3.00;90.20;;;;;;5029660;28;20279;-75
2022/12/21 06:06:57;;;;;;;;;;;3.00;90.20;;;;;;5013231;28;20338;-76
2022/12/21 06:09:23;;;;;;;;;;;3.10;90.20;;;;;;5025760;28;19932;-75
2022/12/21 06:11:48;;;;;;;;;;;3.10;90.20;;;;;;5034277;28;19929;-77
2022/12/21 06:14:14;;;;;;;;;;;3.00;90.20;;;;;;5014140;28;20071;-76
2022/12/21 06:16:40;;;;;;;;;;;3.10;90.20;;;;;;5020846;28;20486;-76
2022/12/21 06:19:07;;;;;;;;;;;3.10;90.20;;;;;;5025021;28;19920;-76
2022/12/21 06:21:32;;;;;;;;;;;3.10;90.20;;;;;;5049347;28;19925;-75
2022/12/21 06:23:58;;;;;;;;;;;3.10;90.20;;;;;;5034026;28;19928;-76
2022/12/21 06:26:23;;;;;;;;;;;3.10;90.20;;;;;;5033077;28;19916;-75
2022/12/21 06:28:49;;;;;;;;;;;3.10;90.20;;;;;;5035378;28;20348;-75
2022/12/21 06:31:15;;;;;;;;;;;3.10;90.20;;;;;;5033872;28;19920;-76
2022/12/21 06:33:40;;;;;;;;;;;3.10;90.20;;;;;;5034508;28;19955;-75
2022/12/21 06:36:06;;;;;;;;;;;3.10;90.20;;;;;;5032071;28;19927;-76
2022/12/21 06:38:32;;;;;;;;;;;3.10;90.20;;;;;;5032032;28;19997;-76
2022/12/21 06:41:01;;;;;;;;;;;3.10;90.20;;;;;;5033874;28;19920;-76
2022/12/21 06:43:27;;;;;;;;;;;3.10;90.20;;;;;;5027954;28;19921;-75
2022/12/21 06:45:56;;;;;;;;;;;3.10;90.20;;;;;;5033160;28;19921;-76
2022/12/21 06:48:22;;;;;;;;;;;3.10;90.20;;;;;;5043608;28;19940;-75
2022/12/21 06:50:51;;;;;;;;;;;3.20;90.30;;;;;;5034800;28;20307;-75
2022/12/21 06:53:17;;;;;;;;;;;3.20;90.20;;;;;;5029068;28;19928;-75
2022/12/21 06:55:42;;;;;;;;;;;3.20;90.30;;;;;;5035072;28;19920;-75
2022/12/21 06:58:08;;;;;;;;;;;3.20;90.30;;;;;;5035596;28;20004;-75
2022/12/21 07:00:33;;;;;;;;;;;3.20;90.30;;;;;;5016980;28;20302;-76
2022/12/21 07:02:58;;;;;;;;;;;3.20;90.20;;;;;;5033431;28;19927;-76
2022/12/21 07:05:24;;;;;;;;;;;3.20;90.20;;;;;;5034556;28;20017;-75
2022/12/21 07:07:49;;;;;;;;;;;3.20;90.20;;;;;;5036404;28;19956;-75
2022/12/21 07:10:15;;;;;;;;;;;3.20;90.20;;;;;;5043669;28;19935;-77
2022/12/21 07:12:40;;;;;;;;;;;3.20;90.20;;;;;;5050207;28;19968;-76
2022/12/21 07:15:06;;;;;;;;;;;3.20;90.20;;;;;;5032708;28;20421;-77
2022/12/21 07:17:31;;;;;;;;;;;3.20;90.20;;;;;;5032272;28;20015;-76
2022/12/21 07:19:57;;;;;;;;;;;3.20;90.20;;;;;;5032395;28;19921;-77
2022/12/21 07:22:23;;;;;;;;;;;3.20;90.20;;;;;;5015560;28;19925;-76
2022/12/21 07:24:48;;;;;;;;;;;3.20;90.20;;;;;;5034338;28;20029;-77
2022/12/21 07:27:14;;;;;;;;;;;3.30;90.20;;;;;;5048401;28;19924;-76
2022/12/21 07:29:39;;;;;;;;;;;3.30;90.20;;;;;;5031230;28;20022;-76
2022/12/21 07:32:05;;;;;;;;;;;3.30;90.20;;;;;;5034573;28;19932;-76
2022/12/21 07:34:30;;;;;;;;;;;3.30;90.30;;;;;;5031538;28;20303;-77
2022/12/21 07:36:55;;;;;;;;;;;3.30;90.20;;;;;;5019186;28;19921;-76
2022/12/21 07:39:21;;;;;;;;;;;3.30;90.20;;;;;;5033173;28;20425;-77
2022/12/21 07:41:46;;;;;;;;;;;3.30;90.20;;;;;;5037030;28;19921;-77
2022/12/21 07:44:12;;;;;;;;;;;3.30;90.30;;;;;;5016163;28;19924;-77
2022/12/21 07:46:38;;;;;;;;;;;3.30;90.20;;;;;;5029968;28;19971;-77
2022/12/21 07:49:03;;;;;;;;;;;3.30;90.20;;;;;;5049513;28;20606;-77
2022/12/21 07:51:29;;;;;;;;;;;3.30;90.20;;;;;;5015815;28;19925;-76
2022/12/21 07:53:54;;;;;;;;;;;3.30;90.20;;;;;;5033425;28;19963;-76
2022/12/21 07:56:20;;;;;;;;;;;3.30;90.20;;;;;;5034096;28;19921;-76
2022/12/21 07:58:45;;;;;;;;;;;3.30;90.20;;;;;;5034005;28;20021;-76
2022/12/21 08:01:12;;;;;;;;;;;3.40;90.20;;;;;;5027205;28;19920;-75
2022/12/21 08:03:37;;;;;;;;;;;3.40;90.20;;;;;;5033470;28;19986;-76
2022/12/21 08:06:03;;;;;;;;;;;3.40;90.20;;;;;;5032298;28;20295;-76
2022/12/21 08:08:28;;;;;;;;;;;3.40;90.20;;;;;;5032491;28;19959;-77
2022/12/21 08:10:54;;;;;;;;;;;3.40;90.20;;;;;;5036290;28;19932;-76
2022/12/21 08:13:19;;;;;;;;;;;3.40;90.60;;;;;;5033849;28;20318;-75
2022/12/21 08:15:45;;;;;;;;;;;3.40;90.20;;;;;;5033446;28;20342;-76
2022/12/21 08:18:10;;;;;;;;;;;3.40;90.20;;;;;;5030281;28;19921;-77
2022/12/21 08:20:36;;;;;;;;;;;3.40;90.20;;;;;;5031480;28;19920;-77
2022/12/21 08:23:01;;;;;;;;;;;3.50;90.20;;;;;;5037040;28;19959;-77
2022/12/21 08:25:27;;;;;;;;;;;3.50;90.20;;;;;;5049400;28;19920;-77
2022/12/21 08:27:52;;;;;;;;;;;3.50;90.20;;;;;;5036498;28;19924;-76
2022/12/21 08:30:18;;;;;;;;;;;3.50;90.20;;;;;;5037983;28;19925;-72
2022/12/21 08:32:43;;;;;;;;;;;3.50;90.20;;;;;;5034051;28;20397;-73
2022/12/21 08:35:09;;;;;;;;;;;3.50;90.20;;;;;;5017329;28;19955;-76
2022/12/21 08:37:34;;;;;;;;;;;3.50;90.20;;;;;;5051965;28;19921;-77
2022/12/21 08:40:00;;;;;;;;;;;3.50;90.20;;;;;;5034467;28;19921;-77
2022/12/21 08:42:25;;;;;;;;;;;3.60;90.20;;;;;;5052232;28;19964;-76
2022/12/21 08:44:50;;;;;;;;;;;3.50;90.20;;;;;;5033161;28;19925;-77
2022/12/21 08:47:16;;;;;;;;;;;3.60;90.20;;;;;;5037716;28;19917;-77
2022/12/21 08:49:41;;;;;;;;;;;3.60;90.20;;;;;;5027497;28;20548;-77
2022/12/21 08:52:07;;;;;;;;;;;3.60;90.20;;;;;;5037441;28;19924;-76
2022/12/21 08:54:32;;;;;;;;;;;3.60;90.20;;;;;;5035114;28;20635;-77
2022/12/21 08:56:58;;;;;;;;;;;3.60;90.20;;;;;;5037053;28;19925;-76
2022/12/21 08:59:23;;;;;;;;;;;3.60;90.20;;;;;;5037859;28;19925;-77
2022/12/21 09:01:50;;;;;;;;;;;3.60;90.20;;;;;;5036585;28;20399;-77
2022/12/21 09:04:16;;;;;;;;;;;3.60;90.20;;;;;;5037727;28;19968;-76
2022/12/21 09:06:41;;;;;;;;;;;3.60;90.20;;;;;;5021809;28;20429;-77
2022/12/21 09:09:08;;;;;;;;;;;3.70;90.20;;;;;;5029607;28;19975;-77
2022/12/21 09:11:34;;;;;;;;;;;3.70;90.20;;;;;;5022179;28;19986;-77
2022/12/21 09:14:00;;;;;;;;;;;3.70;90.20;;;;;;5050954;28;20173;-77
2022/12/21 09:16:25;;;;;;;;;;;3.70;90.20;;;;;;5033453;28;20400;-76
2022/12/21 09:18:51;;;;;;;;;;;3.70;90.20;;;;;;5039691;28;19933;-77
2022/12/21 09:21:17;;;;;;;;;;;3.70;90.20;;;;;;5036564;28;19927;-77
2022/12/21 09:23:42;;;;;;;;;;;3.70;90.20;;;;;;5039172;28;19998;-77
2022/12/21 09:26:08;;;;;;;;;;;3.70;90.20;;;;;;5051218;28;19921;-77
2022/12/21 09:28:34;;;;;;;;;;;3.80;90.20;;;;;;5035822;28;19917;-76
2022/12/21 09:31:06;;;;;;;;;;;3.80;90.20;;;;;;5039196;28;19971;-77
2022/12/21 09:33:32;;;;;;;;;;;3.80;90.20;;;;;;5034617;28;19928;-77
2022/12/21 09:35:57;;;;;;;;;;;3.80;90.20;;;;;;5038496;28;20596;-76
2022/12/21 09:38:23;;;;;;;;;;;3.80;90.20;;;;;;5038748;28;19925;-76
2022/12/21 09:40:48;;;;;;;;;;;3.80;90.20;;;;;;5034309;28;19947;-77
2022/12/21 09:43:32;;;;;;;;;;;3.90;90.20;;;;;;5039046;28;19925;-76
2022/12/21 09:45:58;;;;;;;;;;;3.90;90.20;;;;;;5039933;28;20011;-76
2022/12/21 09:48:30;;;;;;;;;;;3.90;90.20;;;;;;5036066;28;20004;-77
2022/12/21 09:51:05;;;;;;;;;;;3.90;90.20;;;;;;5020462;28;19927;-77
2022/12/21 09:53:35;;;;;;;;;;;3.90;90.20;;;;;;5037931;28;19925;-77
2022/12/21 09:56:01;;;;;;;;;;;4.00;90.20;;;;;;5038733;28;20379;-77
2022/12/21 09:58:42;;;;;;;;;;;4.00;90.20;;;;;;5037251;28;19928;-76
2022/12/21 10:01:26;;;;;;;;;;;4.00;90.20;;;;;;5039493;28;20398;-77
2022/12/21 10:03:51;;;;;;;;;;;4.00;90.20;;;;;;5038014;28;20704;-77
2022/12/21 10:06:36;;;;;;;;;;;4.10;90.20;;;;;;5037031;28;19921;-77
2022/12/21 10:09:07;;;;;;;;;;;4.10;90.20;;;;;;5017773;28;19963;-77
2022/12/21 10:11:36;;;;;;;;;;;4.10;90.10;;;;;;5033865;28;20430;-77
2022/12/21 10:14:20;;;;;;;;;;;4.10;90.10;;;;;;5037278;28;19927;-77
2022/12/21 10:17:09;;;;;;;;;;;4.10;90.10;;;;;;5036225;28;19927;-77
2022/12/21 10:19:41;;;;;;;;;;;4.10;90.10;;;;;;5028824;28;19920;-77
2022/12/21 10:22:13;;;;;;;;;;;4.20;90.10;;;;;;5037395;28;20534;-75
2022/12/21 10:24:49;;;;;;;;;;;4.20;90.10;;;;;;5050235;28;19963;-77
2022/12/21 10:27:21;;;;;;;;;;;4.20;90.20;;;;;;5036813;28;19966;-77
2022/12/21 10:29:47;;;;;;;;;;;4.20;90.20;;;;;;5034245;28;21809;-77
2022/12/21 10:32:13;;;;;;;;;;;4.30;90.20;;;;;;5035257;28;20467;-76
2022/12/21 10:34:43;;;;;;;;;;;4.30;90.20;;;;;;5036899;28;20019;-76
2022/12/21 10:37:11;;;;;;;;;;;4.30;90.10;;;;;;5032451;28;19921;-77
2022/12/21 10:39:36;;;;;;;;;;;4.30;90.20;;;;;;5047833;28;20016;-76
2022/12/21 10:42:10;;;;;;;;;;;4.40;90.20;;;;;;5036635;28;19921;-78
2022/12/21 10:44:37;;;;;;;;;;;4.40;90.10;;;;;;5022104;28;20306;-76
2022/12/21 10:47:10;;;;;;;;;;;4.40;90.10;;;;;;5029010;28;20138;-76
2022/12/21 10:49:36;;;;;;;;;;;4.40;90.10;;;;;;5029408;28;19925;-76
2022/12/21 10:52:22;;;;;;;;;;;4.40;90.10;;;;;;5034010;28;19920;-77
2022/12/21 10:54:47;;;;;;;;;;;4.50;90.10;;;;;;5029714;28;19921;-76
2022/12/21 10:57:13;;;;;;;;;;;4.50;90.10;;;;;;5033934;28;19986;-77
2022/12/21 10:59:39;;;;;;;;;;;4.50;90.10;;;;;;5047453;28;19928;-76
2022/12/21 11:02:04;;;;;;;;;;;4.60;90.10;;;;;;5052237;28;20394;-76
2022/12/21 11:04:30;;;;;;;;;;;4.60;90.10;;;;;;5032163;28;20450;-76
2022/12/21 11:07:05;;;;;;;;;;;4.60;90.10;;;;;;5003850;28;19978;-77
2022/12/21 11:09:35;;;;;;;;;;;4.60;90.00;;;;;;5027955;28;20406;-77
2022/12/21 11:12:15;;;;;;;;;;;4.60;90.00;;;;;;5005272;28;19923;-78
2022/12/21 11:14:40;;;;;;;;;;;4.60;90.00;;;;;;5032098;28;19921;-76
2022/12/21 11:17:08;;;;;;;;;;;4.70;90.00;;;;;;5037282;28;19920;-77
2022/12/21 11:19:34;;;;;;;;;;;4.70;90.00;;;;;;5037269;28;19920;-76
2022/12/21 11:21:59;;;;;;;;;;;4.80;90.10;;;;;;5038966;28;19920;-77
2022/12/21 11:24:27;;;;;;;;;;;4.80;90.10;;;;;;5037866;28;19960;-77
2022/12/21 11:26:54;;;;;;;;;;;4.80;90.10;;;;;;5050766;28;19923;-77
2022/12/21 11:29:22;;;;;;;;;;;4.90;90.10;;;;;;5035697;28;20964;-77
2022/12/21 11:31:47;;;;;;;;;;;4.90;90.10;;;;;;5046422;28;20443;-76
2022/12/21 11:34:30;;;;;;;;;;;4.90;90.00;;;;;;5036323;28;20465;-77
2022/12/21 11:37:00;;;;;;;;;;;4.90;90.00;;;;;;5035137;28;20082;-77
2022/12/21 11:39:25;;;;;;;;;;;5.00;90.00;;;;;;5035534;28;20347;-77
2022/12/21 11:41:51;;;;;;;;;;;5.00;90.00;;;;;;5036424;28;20063;-77
2022/12/21 11:44:21;;;;;;;;;;;5.00;90.00;;;;;;5049498;28;19921;-77
2022/12/21 11:46:47;;;;;;;;;;;5.00;90.00;;;;;;5035971;28;19924;-76
2022/12/21 11:49:24;;;;;;;;;;;5.10;90.00;;;;;;5036137;28;19940;-79
2022/12/21 11:51:53;;;;;;;;;;;5.10;90.00;;;;;;5036717;28;19946;-76
2022/12/21 11:54:37;;;;;;;;;;;5.10;90.00;;;;;;5048988;28;19924;-77
2022/12/21 11:57:16;;;;;;;;;;;5.10;90.00;;;;;;5036250;28;19927;-76
2022/12/21 11:59:45;;;;;;;;;;;5.10;90.00;;;;;;5021710;28;20024;-76
2022/12/21 12:02:16;;;;;;;;;;;5.20;90.00;;;;;;5054763;28;19925;-77
2022/12/21 12:04:41;;;;;;;;;;;5.20;90.00;;;;;;5042530;28;19990;-77
2022/12/21 12:07:07;;;;;;;;;;;5.30;90.00;;;;;;5040508;28;19944;-77
2022/12/21 12:09:48;;;;;;;;;;;5.30;90.00;;;;;;5037582;28;20391;-76
2022/12/21 12:12:16;;;;;;;;;;;5.30;90.00;;;;;;5041696;28;19920;-76
2022/12/21 12:14:48;;;;;;;;;;;5.40;90.00;;;;;;5040331;28;22070;-76
2022/12/21 12:17:18;;;;;;;;;;;5.50;90.00;;;;;;5039722;28;19924;-77
2022/12/21 12:19:43;;;;;;;;;;;5.50;90.00;;;;;;5040388;28;19924;-78
2022/12/21 12:22:21;;;;;;;;;;;5.60;90.00;;;;;;5040681;28;19921;-76
2022/12/21 12:25:04;;;;;;;;;;;5.60;89.90;;;;;;5039196;28;19978;-77
2022/12/21 12:27:45;;;;;;;;;;;5.60;89.80;;;;;;5056891;28;20008;-78
2022/12/21 12:30:14;;;;;;;;;;;5.70;89.90;;;;;;5039963;28;20015;-76
2022/12/21 12:32:43;;;;;;;;;;;5.70;89.90;;;;;;5022263;28;20061;-77
2022/12/21 12:35:11;;;;;;;;;;;5.70;89.80;;;;;;5040134;28;20464;-77
2022/12/21 12:37:45;;;;;;;;;;;5.70;89.80;;;;;;5036117;28;19995;-77
2022/12/21 12:40:29;;;;;;;;;;;5.80;89.90;;;;;;5037565;28;19920;-77
2022/12/21 12:43:00;;;;;;;;;;;5.80;89.90;;;;;;5055765;28;19928;-77
2022/12/21 12:45:57;;;;;;;;;;;5.80;89.80;;;;;;5043000;28;19978;-77
2022/12/21 12:48:29;;;;;;;;;;;5.90;89.80;;;;;;4993450;28;19924;-76
2022/12/21 12:51:14;;;;;;;;;;;5.90;89.70;;;;;;5041263;28;20241;-77
2022/12/21 12:53:42;;;;;;;;;;;5.90;89.70;;;;;;5038059;28;19970;-77
2022/12/21 12:56:12;;;;;;;;;;;5.90;89.80;;;;;;5037653;28;19931;-76
2022/12/21 12:58:41;;;;;;;;;;;5.90;89.80;;;;;;5034598;28;20037;-77
2022/12/21 13:01:25;;;;;;;;;;;5.90;89.70;;;;;;5037103;28;20007;-76
2022/12/21 13:04:03;;;;;;;;;;;6.00;89.80;;;;;;5040522;28;19978;-77
2022/12/21 13:06:35;;;;;;;;;;;6.00;89.80;;;;;;5040240;28;19928;-77
2022/12/21 13:09:07;;;;;;;;;;;6.00;89.70;;;;;;5027838;28;20680;-77
2022/12/21 13:11:33;;;;;;;;;;;6.10;89.70;;;;;;5038368;28;19924;-77
2022/12/21 13:14:04;;;;;;;;;;;6.10;89.70;;;;;;5035742;28;20339;-77
2022/12/21 13:16:29;;;;;;;;;;;6.10;89.70;;;;;;5050883;28;20011;-76
2022/12/21 13:18:56;;;;;;;;;;;6.20;89.70;;;;;;5036133;28;19938;-77
2022/12/21 13:21:22;;;;;;;;;;;6.20;89.70;;;;;;5053136;28;20582;-77
2022/12/21 13:23:51;;;;;;;;;;;6.30;89.70;;;;;;5023268;28;19921;-77
2022/12/21 13:26:26;;;;;;;;;;;6.30;89.70;;;;;;5053390;28;20395;-78
2022/12/21 13:28:58;;;;;;;;;;;6.30;89.60;;;;;;5038290;28;20070;-77
2022/12/21 13:31:26;;;;;;;;;;;6.40;89.60;;;;;;5052729;28;19932;-77
2022/12/21 13:33:53;;;;;;;;;;;6.40;89.60;;;;;;5039700;28;19928;-77
2022/12/21 13:36:18;;;;;;;;;;;6.40;89.60;;;;;;5039524;28;19921;-77
2022/12/21 13:38:46;;;;;;;;;;;6.50;89.50;;;;;;5020043;28;19917;-76
2022/12/21 13:41:26;;;;;;;;;;;6.50;89.50;;;;;;5021316;28;19953;-77
2022/12/21 13:44:01;;;;;;;;;;;6.50;89.50;;;;;;5038002;28;19921;-76
2022/12/21 13:46:26;;;;;;;;;;;6.50;89.50;;;;;;5035513;28;19927;-76
2022/12/21 13:48:56;;;;;;;;;;;6.50;89.50;;;;;;5039630;28;20298;-77
2022/12/21 13:51:32;;;;;;;;;;;6.50;89.50;;;;;;5037222;28;19924;-77
2022/12/21 13:54:04;;;;;;;;;;;6.60;89.60;;;;;;5035217;28;19924;-76
2022/12/21 13:56:49;;;;;;;;;;;6.60;89.50;;;;;;5034593;28;19925;-77
2022/12/21 13:59:36;;;;;;;;;;;6.60;89.50;;;;;;5006515;28;19979;-77
2022/12/21 14:02:04;;;;;;;;;;;6.60;89.50;;;;;;5037543;28;19956;-77
2022/12/21 14:04:30;;;;;;;;;;;6.60;89.50;;;;;;5026695;28;19921;-77
2022/12/21 14:07:00;;;;;;;;;;;6.60;89.50;;;;;;5054543;28;19978;-77
2022/12/21 14:09:48;;;;;;;;;;;6.70;89.60;;;;;;5036656;28;19932;-77
2022/12/21 14:12:26;;;;;;;;;;;6.70;89.50;;;;;;5024894;28;20350;-77
2022/12/21 14:15:10;;;;;;;;;;;6.70;89.50;;;;;;5038225;28;19971;-77
2022/12/21 14:17:45;;;;;;;;;;;6.80;89.50;;;;;;5051423;28;19967;-77
2022/12/21 14:20:16;;;;;;;;;;;6.80;89.40;;;;;;5034055;28;19932;-77
2022/12/21 14:22:43;;;;;;;;;;;6.80;89.40;;;;;;5038421;28;21098;-77
2022/12/21 14:25:13;;;;;;;;;;;6.80;89.40;;;;;;5020503;28;19945;-77
2022/12/21 14:27:39;;;;;;;;;;;6.80;89.40;;;;;;5052219;28;19921;-77
2022/12/21 14:30:12;;;;;;;;;;;6.80;89.40;;;;;;5036539;28;19956;-77
2022/12/21 14:32:38;;;;;;;;;;;6.90;89.40;;;;;;5036370;28;19920;-77
2022/12/21 14:35:16;;;;;;;;;;;6.90;89.40;;;;;;5035634;28;20443;-77
2022/12/21 14:37:58;;;;;;;;;;;6.80;89.30;;;;;;5036920;28;20351;-76
2022/12/21 14:40:24;;;;;;;;;;;6.80;89.30;;;;;;5051465;28;19925;-77
2022/12/21 14:42:53;;;;;;;;;;;6.80;89.40;;;;;;5037623;28;20401;-77
2022/12/21 14:45:18;;;;;;;;;;;6.90;89.40;;;;;;5026970;28;19921;-77
2022/12/21 14:47:44;;;;;;;;;;;6.90;89.40;;;;;;5035647;28;19927;-76
2022/12/21 14:50:18;;;;;;;;;;;6.90;89.50;;;;;;5033412;28;20514;-76
2022/12/21 14:52:59;;;;;;;;;;;6.90;89.50;;;;;;5035649;28;20012;-77
2022/12/21 14:55:31;;;;;;;;;;;6.90;89.50;;;;;;5029843;28;19965;-76
2022/12/21 14:57:57;;;;;;;;;;;6.90;89.50;;;;;;5033378;28;19925;-78